createdAt,value
2023-06-04T00:01:02.909Z,38.54
2023-06-04T00:03:32.794Z,38.72
2023-06-04T00:06:02.705Z,38.58
2023-06-04T00:08:32.449Z,39.01
2023-06-04T00:11:02.261Z,38.82
2023-06-04T00:13:32.007Z,38.68
2023-06-04T00:16:04.522Z,38.95
2023-06-04T00:18:34.365Z,39.01
2023-06-04T00:21:04.233Z,38.92
2023-06-04T00:23:34.196Z,38.89
2023-06-04T00:26:04.026Z,39.04
2023-06-04T00:28:33.755Z,38.88
2023-06-04T00:31:08.684Z,39.14
2023-06-04T00:33:38.925Z,39.29
2023-06-04T00:36:09.139Z,39.20
2023-06-04T00:38:38.880Z,39.37
2023-06-04T00:41:08.957Z,39.50
2023-06-04T00:43:39.269Z,39.90
2023-06-04T00:46:18.960Z,39.83
2023-06-04T00:48:48.904Z,39.90
2023-06-04T00:51:18.725Z,40.08
2023-06-04T00:53:48.841Z,40.45
2023-06-04T00:56:18.869Z,40.52
2023-06-04T00:58:49.417Z,40.75
2023-06-04T01:01:28.888Z,41.02
2023-06-04T01:03:59.626Z,41.08
2023-06-04T01:06:33.703Z,41.40
2023-06-04T01:09:04.211Z,41.28
2023-06-04T01:11:38.407Z,41.22
2023-06-04T01:14:10.414Z,41.26
2023-06-04T01:16:45.116Z,41.27
2023-06-04T01:19:27.210Z,41.26
2023-06-04T01:21:58.044Z,41.33
2023-06-04T01:24:29.925Z,41.13
2023-06-04T01:27:00.369Z,41.41
2023-06-04T01:29:31.450Z,41.46
2023-06-04T01:32:04.081Z,41.48
2023-06-04T01:34:33.860Z,41.66
2023-06-04T01:37:03.808Z,41.72
2023-06-04T01:39:33.575Z,41.72
2023-06-04T01:42:03.757Z,41.91
2023-06-04T01:44:33.524Z,42.04
2023-06-04T01:47:05.874Z,42.06
2023-06-04T01:49:35.706Z,42.17
2023-06-04T01:52:05.652Z,42.08
2023-06-04T01:54:35.419Z,42.37
2023-06-04T01:57:05.193Z,42.51
2023-06-04T01:59:35.323Z,42.28
2023-06-04T02:02:08.107Z,42.53
2023-06-04T02:04:38.316Z,42.45
2023-06-04T02:07:09.634Z,42.55
2023-06-04T02:09:39.820Z,42.56
2023-06-04T02:12:10.707Z,42.82
2023-06-04T02:14:46.336Z,42.95
2023-06-04T02:17:18.673Z,43.05
2023-06-04T02:19:51.261Z,43.11
2023-06-04T02:22:21.566Z,43.21
2023-06-04T02:24:51.327Z,43.47
2023-06-04T02:27:21.417Z,43.48
2023-06-04T02:29:51.349Z,43.50
2023-06-04T02:32:23.910Z,43.74
2023-06-04T02:34:53.682Z,43.74
2023-06-04T02:37:23.623Z,44.03
2023-06-04T02:39:53.368Z,44.09
2023-06-04T02:42:23.128Z,44.16
2023-06-04T02:44:52.876Z,44.34
2023-06-04T02:47:25.252Z,44.47
2023-06-04T02:49:55.038Z,44.63
2023-06-04T02:52:26.498Z,44.62
2023-06-04T02:54:56.367Z,44.62
2023-06-04T02:57:27.240Z,44.73
2023-06-04T02:59:56.988Z,44.72
2023-06-04T03:02:29.493Z,44.86
2023-06-04T03:04:59.276Z,45.00
2023-06-04T03:07:29.230Z,45.06
2023-06-04T03:09:59.030Z,45.09
2023-06-04T03:12:28.803Z,45.21
2023-06-04T03:14:58.544Z,45.23
2023-06-04T03:17:32.661Z,45.30
2023-06-04T03:20:02.610Z,45.28
2023-06-04T03:22:35.162Z,45.29
2023-06-04T03:25:05.206Z,45.21
2023-06-04T03:27:35.812Z,45.28
2023-06-04T03:30:07.090Z,45.35
2023-06-04T03:32:52.768Z,45.26
2023-06-04T03:35:22.595Z,45.21
2023-06-04T03:37:52.363Z,45.17
2023-06-04T03:40:23.375Z,45.09
2023-06-04T03:42:53.837Z,45.10
2023-06-04T03:45:25.109Z,45.23
2023-06-04T03:47:57.588Z,45.27
2023-06-04T03:50:27.918Z,45.42
2023-06-04T03:52:58.999Z,45.51
2023-06-04T03:55:29.075Z,45.57
2023-06-04T03:57:58.825Z,45.61
2023-06-04T04:00:28.936Z,45.73
2023-06-04T04:03:04.848Z,45.68
2023-06-04T04:05:35.160Z,45.60
2023-06-04T04:08:04.938Z,45.74
2023-06-04T04:10:37.155Z,45.69
2023-06-04T04:13:08.089Z,45.71
2023-06-04T04:15:40.945Z,45.46
2023-06-04T04:18:13.467Z,45.78
2023-06-04T04:20:43.852Z,45.65
2023-06-04T04:23:14.584Z,45.44
2023-06-04T04:25:48.485Z,45.54
2023-06-04T04:28:18.599Z,45.35
2023-06-04T04:30:50.170Z,45.39
2023-06-04T04:33:25.183Z,45.46
2023-06-04T04:35:55.282Z,45.34
2023-06-04T04:38:26.224Z,45.36
2023-06-04T04:41:05.031Z,45.50
2023-06-04T04:43:35.759Z,45.52
2023-06-04T04:46:28.886Z,45.58
2023-06-04T04:49:01.555Z,45.77
2023-06-04T04:51:31.567Z,45.46
2023-06-04T04:54:02.033Z,45.46
2023-06-04T04:56:37.532Z,45.31
2023-06-04T04:59:08.395Z,45.34
2023-06-04T05:01:38.205Z,45.09
2023-06-04T05:04:11.513Z,44.83
2023-06-04T05:06:43.339Z,44.98
2023-06-04T05:09:13.201Z,44.87
2023-06-04T05:11:42.970Z,44.57
2023-06-04T05:14:12.776Z,44.57
2023-06-04T05:16:45.777Z,44.42
2023-06-04T05:19:20.455Z,44.31
2023-06-04T05:21:50.268Z,44.16
2023-06-04T05:24:21.062Z,43.98
2023-06-04T05:26:52.221Z,43.55
2023-06-04T05:29:24.406Z,43.77
2023-06-04T05:31:54.302Z,43.60
2023-06-04T05:34:29.072Z,43.41
2023-06-04T05:36:59.478Z,43.42
2023-06-04T05:39:30.908Z,43.12
2023-06-04T05:42:07.808Z,42.93
2023-06-04T05:44:38.078Z,42.82
2023-06-04T05:47:09.880Z,42.84
2023-06-04T05:49:42.240Z,42.46
2023-06-04T05:52:12.350Z,42.43
2023-06-04T05:54:42.529Z,41.96
2023-06-04T05:57:12.379Z,41.61
2023-06-04T05:59:42.205Z,39.89
2023-06-04T06:02:16.249Z,39.35
2023-06-04T06:04:49.005Z,37.91
2023-06-04T06:07:20.641Z,36.68
2023-06-04T06:09:50.452Z,35.28
2023-06-04T06:12:21.293Z,34.35
2023-06-04T06:14:51.174Z,33.32
2023-06-04T06:17:20.946Z,32.41
2023-06-04T06:19:53.562Z,32.01
2023-06-04T06:22:23.475Z,30.84
2023-06-04T06:24:53.618Z,29.61
2023-06-04T06:27:23.589Z,28.77
2023-06-04T06:29:53.631Z,28.82
2023-06-04T06:32:23.353Z,28.10
2023-06-04T06:34:55.775Z,26.89
2023-06-04T06:37:25.566Z,26.62
2023-06-04T06:39:55.290Z,26.06
2023-06-04T06:42:25.013Z,25.78
2023-06-04T06:44:55.656Z,24.78
2023-06-04T06:47:25.823Z,23.88
2023-06-04T06:49:58.428Z,23.86
2023-06-04T06:52:28.169Z,23.19
2023-06-04T06:54:57.934Z,22.58
2023-06-04T06:57:27.681Z,22.44
2023-06-04T06:59:57.392Z,22.13
2023-06-04T07:02:27.235Z,21.92
2023-06-04T07:04:59.763Z,21.23
2023-06-04T07:07:29.744Z,21.41
2023-06-04T07:09:59.538Z,20.93
2023-06-04T07:12:29.273Z,20.65
2023-06-04T07:14:59.058Z,20.65
2023-06-04T07:17:29.114Z,20.48
2023-06-04T07:20:01.607Z,20.61
2023-06-04T07:22:31.422Z,20.17
2023-06-04T07:25:01.235Z,20.37
2023-06-04T07:27:31.030Z,20.45
2023-06-04T07:30:00.802Z,19.65
2023-06-04T07:32:30.604Z,19.41
2023-06-04T07:35:02.998Z,19.25
2023-06-04T07:37:32.771Z,18.91
2023-06-04T07:40:02.541Z,18.56
2023-06-04T07:42:32.307Z,18.63
2023-06-04T07:45:03.093Z,18.38
2023-06-04T07:47:32.892Z,18.22
2023-06-04T07:50:05.258Z,17.37
2023-06-04T07:52:35.007Z,17.29
2023-06-04T07:55:04.971Z,17.13
2023-06-04T07:57:34.942Z,16.63
2023-06-04T08:00:06.974Z,16.21
2023-06-04T08:02:41.708Z,16.11
2023-06-04T08:05:14.993Z,16.68
2023-06-04T08:07:44.803Z,15.89
2023-06-04T08:10:14.694Z,16.23
2023-06-04T08:12:44.429Z,16.34
2023-06-04T08:15:14.478Z,16.27
2023-06-04T08:17:44.231Z,16.32
2023-06-04T08:20:16.717Z,16.41
2023-06-04T08:22:46.524Z,16.29
2023-06-04T08:25:16.606Z,15.78
2023-06-04T08:27:47.055Z,15.46
2023-06-04T08:30:17.416Z,15.44
2023-06-04T08:32:47.421Z,15.37
2023-06-04T08:35:20.075Z,14.60
2023-06-04T08:37:49.797Z,15.13
2023-06-04T08:40:19.576Z,15.28
2023-06-04T08:42:49.517Z,15.65
2023-06-04T08:45:19.321Z,15.62
2023-06-04T08:47:52.760Z,15.77
2023-06-04T08:50:26.613Z,15.77
2023-06-04T08:52:58.094Z,15.07
2023-06-04T08:55:27.945Z,14.99
2023-06-04T08:57:57.907Z,14.92
2023-06-04T09:00:27.764Z,14.95
2023-06-04T09:02:57.677Z,14.94
2023-06-04T09:05:30.173Z,14.80
2023-06-04T09:08:04.188Z,14.29
2023-06-04T09:10:36.011Z,13.92
2023-06-04T09:13:07.070Z,14.47
2023-06-04T09:15:36.891Z,14.74
2023-06-04T09:18:07.080Z,14.60
2023-06-04T09:20:39.411Z,14.68
2023-06-04T09:23:18.380Z,14.18
2023-06-04T09:25:48.154Z,14.08
2023-06-04T09:28:17.901Z,14.11
2023-06-04T09:30:55.130Z,13.86
2023-06-04T09:33:26.122Z,14.39
2023-06-04T09:36:01.734Z,13.82
2023-06-04T09:38:38.059Z,13.96
2023-06-04T09:41:15.197Z,14.24
2023-06-04T09:43:45.035Z,14.78
2023-06-04T09:46:15.912Z,14.62
2023-06-04T09:48:46.683Z,14.46
2023-06-04T09:51:21.207Z,14.91
2023-06-04T09:53:57.899Z,15.23
2023-06-04T09:56:27.970Z,15.50
2023-06-04T09:59:02.568Z,15.59
2023-06-04T10:01:33.901Z,15.23
2023-06-04T10:04:07.862Z,16.23
2023-06-04T10:06:40.647Z,16.51
2023-06-04T10:09:12.352Z,16.37
2023-06-04T10:11:45.317Z,16.92
2023-06-04T10:14:18.838Z,17.82
2023-06-04T10:16:49.504Z,19.47
2023-06-04T10:19:22.173Z,20.19
2023-06-04T10:21:54.767Z,21.13
2023-06-04T10:24:27.590Z,21.48
2023-06-04T10:26:59.368Z,22.43
2023-06-04T10:29:29.735Z,22.87
2023-06-04T10:31:59.695Z,23.37
2023-06-04T10:34:30.701Z,23.86
2023-06-04T10:37:03.784Z,24.44
2023-06-04T10:39:34.938Z,24.83
2023-06-04T10:42:05.056Z,25.30
2023-06-04T10:44:35.532Z,25.67
2023-06-04T10:47:05.256Z,25.83
2023-06-04T10:49:35.078Z,26.08
2023-06-04T10:52:13.918Z,26.05
2023-06-04T10:54:46.266Z,26.10
2023-06-04T10:57:16.940Z,25.89
2023-06-04T10:59:57.512Z,26.02
2023-06-04T11:02:27.516Z,26.15
2023-06-04T11:05:07.342Z,26.19
2023-06-04T11:07:51.506Z,26.31
2023-06-04T11:10:21.616Z,26.37
2023-06-04T11:12:54.044Z,26.45
2023-06-04T11:15:23.988Z,26.25
2023-06-04T11:17:55.203Z,26.79
2023-06-04T11:20:26.568Z,26.67
2023-06-04T11:23:00.939Z,26.82
2023-06-04T11:25:31.900Z,26.86
2023-06-04T11:28:02.714Z,26.67
2023-06-04T11:30:32.701Z,26.93
2023-06-04T11:33:06.501Z,26.43
2023-06-04T11:35:44.598Z,26.67
2023-06-04T11:38:17.059Z,26.55
2023-06-04T11:40:46.831Z,27.21
2023-06-04T11:43:17.245Z,27.05
2023-06-04T11:45:47.558Z,26.88
2023-06-04T11:48:17.446Z,26.91
2023-06-04T11:50:47.914Z,26.90
2023-06-04T11:53:20.963Z,26.79
2023-06-04T11:55:50.902Z,26.56
2023-06-04T11:58:21.233Z,27.12
2023-06-04T12:00:51.053Z,26.71
2023-06-04T12:03:21.111Z,27.05
2023-06-04T12:05:50.952Z,26.62
2023-06-04T12:08:23.436Z,26.83
2023-06-04T12:10:53.308Z,27.03
2023-06-04T12:13:23.091Z,26.92
2023-06-04T12:15:55.951Z,27.17
2023-06-04T12:18:28.087Z,27.50
2023-06-04T12:20:57.908Z,27.19
2023-06-04T12:23:33.595Z,26.93
2023-06-04T12:26:04.880Z,27.27
2023-06-04T12:28:36.787Z,27.02
2023-06-04T12:31:06.553Z,27.12
2023-06-04T12:33:36.675Z,27.58
2023-06-04T12:36:06.942Z,27.18
2023-06-04T12:38:39.489Z,27.01
2023-06-04T12:41:09.232Z,27.72
2023-06-04T12:43:39.008Z,27.53
2023-06-04T12:46:09.144Z,27.56
2023-06-04T12:48:39.103Z,27.39
2023-06-04T12:51:09.019Z,27.52
2023-06-04T12:53:42.464Z,27.65
2023-06-04T12:56:12.229Z,27.87
2023-06-04T12:58:42.103Z,27.87
2023-06-04T13:01:12.700Z,27.57
2023-06-04T13:03:44.880Z,27.83
2023-06-04T13:06:14.778Z,27.91
2023-06-04T13:08:47.253Z,28.10
2023-06-04T13:11:17.071Z,27.85
2023-06-04T13:13:46.867Z,27.81
2023-06-04T13:16:16.732Z,27.81
2023-06-04T13:18:46.660Z,27.55
2023-06-04T13:21:16.524Z,27.47
2023-06-04T13:23:51.021Z,28.35
2023-06-04T13:26:21.226Z,28.41
2023-06-04T13:28:50.985Z,27.77
2023-06-04T13:31:20.781Z,28.07
2023-06-04T13:33:50.629Z,27.73
2023-06-04T13:36:20.334Z,28.14
2023-06-04T13:38:53.886Z,28.10
2023-06-04T13:41:24.349Z,28.09
2023-06-04T13:43:54.061Z,27.56
2023-06-04T13:46:23.821Z,28.03
2023-06-04T13:48:53.674Z,28.02
2023-06-04T13:51:23.465Z,27.80
2023-06-04T13:53:56.096Z,28.31
2023-06-04T13:56:26.552Z,27.97
2023-06-04T13:58:56.259Z,28.12
2023-06-04T14:01:26.040Z,28.17
2023-06-04T14:03:55.981Z,28.27
2023-06-04T14:06:26.363Z,27.79
2023-06-04T14:08:58.776Z,28.29
2023-06-04T14:11:28.718Z,27.98
2023-06-04T14:13:58.451Z,28.12
2023-06-04T14:16:28.310Z,28.45
2023-06-04T14:18:58.238Z,28.48
2023-06-04T14:21:28.241Z,28.64
2023-06-04T14:24:00.789Z,28.94
2023-06-04T14:26:30.608Z,28.52
2023-06-04T14:29:00.838Z,28.53
2023-06-04T14:31:30.889Z,28.72
2023-06-04T14:34:00.703Z,28.71
2023-06-04T14:36:30.534Z,28.89
2023-06-04T14:39:03.145Z,29.13
2023-06-04T14:41:32.911Z,28.83
2023-06-04T14:44:02.717Z,28.95
2023-06-04T14:46:32.566Z,28.88
2023-06-04T14:49:02.312Z,29.26
2023-06-04T14:51:32.773Z,28.49
2023-06-04T14:54:05.084Z,28.85
2023-06-04T14:56:34.811Z,28.89
2023-06-04T14:59:10.172Z,28.81
2023-06-04T15:01:41.846Z,28.69
2023-06-04T15:04:11.932Z,28.77
2023-06-04T15:06:41.709Z,28.83
2023-06-04T15:09:14.189Z,29.31
2023-06-04T15:11:43.915Z,29.18
2023-06-04T15:14:13.717Z,28.81
2023-06-04T15:16:43.646Z,28.47
2023-06-04T15:19:13.667Z,29.00
2023-06-04T15:21:44.994Z,28.52
2023-06-04T15:24:17.484Z,29.02
2023-06-04T15:26:47.231Z,29.29
2023-06-04T15:29:16.957Z,29.04
2023-06-04T15:31:47.449Z,28.88
2023-06-04T15:34:17.628Z,28.91
2023-06-04T15:36:47.777Z,28.86
2023-06-04T15:39:20.177Z,28.28
2023-06-04T15:41:49.993Z,27.93
2023-06-04T15:44:19.889Z,28.31
2023-06-04T15:46:49.741Z,28.12
2023-06-04T15:49:19.486Z,28.22
2023-06-04T15:51:50.121Z,27.72
2023-06-04T15:54:33.242Z,27.86
2023-06-04T15:57:12.549Z,27.62
2023-06-04T15:59:42.348Z,27.84
2023-06-04T16:02:12.259Z,27.80
2023-06-04T16:04:42.068Z,27.55
2023-06-04T16:07:11.878Z,27.18
2023-06-04T16:09:44.188Z,27.63
2023-06-04T16:12:14.014Z,27.76
2023-06-04T16:14:44.041Z,27.34
2023-06-04T16:17:13.749Z,27.18
2023-06-04T16:19:43.492Z,27.74
2023-06-04T16:22:14.747Z,27.50
2023-06-04T16:24:48.829Z,27.67
2023-06-04T16:27:18.645Z,27.16
2023-06-04T16:29:48.445Z,27.07
2023-06-04T16:32:18.151Z,26.91
2023-06-04T16:34:47.870Z,27.14
2023-06-04T16:37:17.646Z,27.52
2023-06-04T16:39:50.039Z,27.52
2023-06-04T16:42:19.840Z,27.78
2023-06-04T16:44:50.231Z,27.37
2023-06-04T16:47:20.046Z,27.65
2023-06-04T16:49:49.777Z,27.96
2023-06-04T16:52:19.520Z,27.85
2023-06-04T16:54:51.904Z,28.01
2023-06-04T16:57:22.175Z,27.91
2023-06-04T16:59:52.094Z,27.82
2023-06-04T17:02:21.990Z,28.12
2023-06-04T17:04:52.031Z,27.90
2023-06-04T17:07:21.799Z,27.83
2023-06-04T17:09:54.350Z,28.48
2023-06-04T17:12:24.154Z,28.03
2023-06-04T17:14:53.893Z,28.29
2023-06-04T17:17:23.667Z,28.53
2023-06-04T17:19:53.465Z,28.61
2023-06-04T17:22:23.190Z,28.39
2023-06-04T17:24:56.090Z,28.07
2023-06-04T17:27:25.866Z,27.96
2023-06-04T17:29:55.805Z,28.54
2023-06-04T17:32:26.139Z,28.34
2023-06-04T17:34:56.061Z,28.00
2023-06-04T17:37:25.814Z,27.93
2023-06-04T17:39:58.224Z,28.17
2023-06-04T17:42:27.961Z,27.86
2023-06-04T17:44:57.697Z,28.18
2023-06-04T17:47:27.490Z,28.50
2023-06-04T17:49:57.290Z,28.04
2023-06-04T17:52:27.057Z,28.67
2023-06-04T17:54:59.360Z,28.26
2023-06-04T17:57:29.217Z,28.30
2023-06-04T17:59:59.149Z,28.32
2023-06-04T18:02:29.164Z,28.10
2023-06-04T18:04:58.948Z,28.15
2023-06-04T18:07:28.686Z,28.34
2023-06-04T18:10:01.332Z,28.67
2023-06-04T18:12:32.818Z,28.66
2023-06-04T18:15:04.259Z,28.75
2023-06-04T18:17:34.203Z,28.52
2023-06-04T18:20:04.063Z,28.87
2023-06-04T18:22:33.896Z,28.71
2023-06-04T18:25:08.962Z,28.72
2023-06-04T18:27:39.174Z,28.93
2023-06-04T18:30:10.361Z,28.66
2023-06-04T18:32:40.394Z,29.05
2023-06-04T18:35:10.697Z,28.87
2023-06-04T18:37:40.664Z,29.50
2023-06-04T18:40:14.921Z,29.38
2023-06-04T18:42:44.673Z,29.43
2023-06-04T18:47:44.028Z,29.65
2023-06-04T18:50:14.829Z,29.76
2023-06-04T18:52:44.564Z,29.63
2023-06-04T18:55:18.415Z,30.25
2023-06-04T18:57:47.933Z,30.12
2023-06-04T19:00:20.440Z,30.45
2023-06-04T19:02:50.300Z,30.26
2023-06-04T19:05:20.358Z,30.70
2023-06-04T19:07:52.916Z,30.91
2023-06-04T19:10:25.728Z,31.02
2023-06-04T19:12:55.448Z,31.04
2023-06-04T19:15:25.158Z,31.02
2023-06-04T19:17:55.488Z,31.43
2023-06-04T19:20:25.376Z,31.46
2023-06-04T19:22:55.130Z,31.61
2023-06-04T19:25:27.491Z,32.00
2023-06-04T19:27:57.252Z,31.62
2023-06-04T19:30:27.229Z,31.93
2023-06-04T19:32:57.028Z,32.31
2023-06-04T19:35:27.018Z,32.27
2023-06-04T19:37:57.224Z,32.72
2023-06-04T19:40:29.548Z,32.72
2023-06-04T19:42:59.279Z,32.54
2023-06-04T19:45:29.097Z,32.81
2023-06-04T19:47:59.555Z,33.28
2023-06-04T19:50:29.692Z,33.38
2023-06-04T19:52:59.441Z,33.59
2023-06-04T19:55:32.720Z,33.52
2023-06-04T19:58:02.649Z,34.02
2023-06-04T20:00:32.385Z,34.09
2023-06-04T20:03:02.382Z,34.08
2023-06-04T20:05:32.550Z,34.60
2023-06-04T20:08:02.430Z,34.76
2023-06-04T20:10:35.001Z,34.96
2023-06-04T20:13:04.734Z,35.06
2023-06-04T20:15:34.867Z,35.38
2023-06-04T20:18:04.774Z,35.37
2023-06-04T20:20:34.593Z,35.87
2023-06-04T20:23:04.358Z,35.64
2023-06-04T20:25:36.940Z,36.21
2023-06-04T20:28:06.752Z,36.03
2023-06-04T20:30:36.667Z,36.79
2023-06-04T20:33:06.738Z,36.73
2023-06-04T20:35:36.994Z,37.18
2023-06-04T20:38:07.261Z,37.21
2023-06-04T20:40:39.563Z,37.27
2023-06-04T20:43:09.318Z,37.43
2023-06-04T20:45:39.030Z,37.34
2023-06-04T20:48:08.861Z,37.46
2023-06-04T20:50:38.728Z,37.97
2023-06-04T20:53:08.473Z,37.59
2023-06-04T20:55:40.815Z,37.91
2023-06-04T20:58:10.684Z,37.81
2023-06-04T21:00:40.411Z,37.94
2023-06-04T21:03:10.169Z,37.98
2023-06-04T21:05:39.997Z,38.12
2023-06-04T21:08:09.691Z,38.26
2023-06-04T21:10:42.133Z,38.63
2023-06-04T21:13:11.943Z,38.43
2023-06-04T21:15:41.790Z,38.96
2023-06-04T21:18:11.561Z,38.92
2023-06-04T21:20:41.443Z,38.78
2023-06-04T21:23:11.308Z,39.28
2023-06-04T21:25:43.859Z,38.91
2023-06-04T21:28:13.658Z,39.46
2023-06-04T21:30:43.563Z,39.44
2023-06-04T21:33:13.478Z,39.41
2023-06-04T21:35:43.385Z,39.40
2023-06-04T21:38:13.118Z,39.09
2023-06-04T21:40:45.433Z,39.58
2023-06-04T21:43:15.212Z,39.20
2023-06-04T21:45:45.219Z,39.59
2023-06-04T21:48:15.055Z,39.68
2023-06-04T21:50:44.866Z,39.68
2023-06-04T21:53:14.743Z,39.87
2023-06-04T21:55:47.328Z,40.07
2023-06-04T21:58:18.825Z,39.82
2023-06-04T22:00:48.894Z,39.69
2023-06-04T22:03:19.014Z,39.72
2023-06-04T22:05:48.897Z,39.69
2023-06-04T22:08:18.846Z,39.99
2023-06-04T22:10:51.195Z,39.79
2023-06-04T22:13:20.895Z,40.02
2023-06-04T22:15:50.863Z,40.40
2023-06-04T22:18:20.686Z,40.19
2023-06-04T22:20:50.488Z,40.20
2023-06-04T22:23:20.592Z,40.39
2023-06-04T22:25:53.877Z,40.47
2023-06-04T22:28:23.698Z,40.38
2023-06-04T22:30:53.473Z,40.28
2023-06-04T22:33:23.354Z,40.38
2023-06-04T22:35:53.309Z,40.65
2023-06-04T22:38:23.931Z,40.27
2023-06-04T22:40:56.462Z,40.60
2023-06-04T22:43:27.725Z,40.42
2023-06-04T22:45:57.589Z,40.56
2023-06-04T22:48:27.365Z,40.76
2023-06-04T22:50:58.133Z,40.57
2023-06-04T22:53:29.230Z,40.49
2023-06-04T22:56:07.447Z,40.64
2023-06-04T22:58:37.354Z,41.03
2023-06-04T23:01:07.362Z,40.95
2023-06-04T23:03:37.394Z,41.38
2023-06-04T23:06:07.544Z,41.19
2023-06-04T23:08:37.308Z,41.51
2023-06-04T23:11:10.184Z,41.47
2023-06-04T23:13:40.147Z,41.57
2023-06-04T23:16:10.153Z,41.73
2023-06-04T23:18:39.975Z,42.21
2023-06-04T23:21:10.042Z,42.29
2023-06-04T23:23:40.096Z,42.26
2023-06-04T23:26:12.696Z,42.97
2023-06-04T23:28:42.439Z,42.95
2023-06-04T23:31:12.615Z,43.23
2023-06-04T23:33:42.365Z,43.33
2023-06-04T23:36:12.098Z,43.93
2023-06-04T23:38:41.833Z,44.15
2023-06-04T23:41:14.156Z,44.18
2023-06-04T23:43:43.946Z,44.51
2023-06-04T23:46:13.764Z,45.11
2023-06-04T23:48:43.581Z,45.26
2023-06-04T23:51:14.166Z,45.44
2023-06-04T23:53:44.088Z,45.84
2023-06-04T23:56:16.444Z,45.94
2023-06-04T23:58:46.226Z,46.16
